Time;durP1;ratioP1;P1;durP2;ratioP2;P2;SDS_P1;SDS_P2;PMS_P1;PMS_P2;Temp;Humidity;BMP_temperature;BMP_pressure;BME280_temperature;BME280_humidity;BME280_pressure;Samples;Min_cycle;Max_cycle;Signal;HPM_P1;HPM_P2
2023/01/30 00:01:11;;;;;;;0.30;0.30;;;5.10;99.90;;;;;;5033238;28;20207;-80
2023/01/30 00:03:36;;;;;;;0.30;0.30;;;5.10;99.90;;;;;;5019699;28;20183;-79
2023/01/30 00:06:02;;;;;;;0.30;0.30;;;5.10;99.90;;;;;;5028671;28;20492;-80
2023/01/30 00:08:27;;;;;;;0.30;0.30;;;5.10;99.90;;;;;;5030627;28;20184;-80
2023/01/30 00:10:53;;;;;;;0.20;0.20;;;5.10;99.90;;;;;;5028812;28;20187;-80
2023/01/30 00:13:18;;;;;;;0.30;0.30;;;5.10;99.90;;;;;;5028311;28;20355;-80
2023/01/30 00:15:44;;;;;;;0.30;0.30;;;5.10;99.90;;;;;;5022962;28;20202;-80
2023/01/30 00:18:09;;;;;;;0.20;0.20;;;5.00;99.90;;;;;;5025080;28;20214;-80
2023/01/30 00:20:36;;;;;;;0.30;0.30;;;5.00;99.90;;;;;;5031122;28;20198;-80
2023/01/30 00:23:01;;;;;;;0.20;0.20;;;5.00;99.90;;;;;;5031179;28;20190;-80
2023/01/30 00:25:28;;;;;;;0.27;0.27;;;5.00;99.90;;;;;;5019508;28;20851;-80
2023/01/30 00:27:53;;;;;;;0.30;0.30;;;5.00;99.90;;;;;;5020806;28;20184;-80
2023/01/30 00:30:19;;;;;;;0.30;0.30;;;5.10;99.90;;;;;;5028532;28;20536;-80
2023/01/30 00:32:44;;;;;;;0.20;0.20;;;5.00;99.90;;;;;;5029717;28;20189;-80
2023/01/30 00:35:10;;;;;;;0.20;0.20;;;5.10;99.90;;;;;;5029243;28;20190;-80
2023/01/30 00:37:35;;;;;;;0.30;0.30;;;5.10;99.90;;;;;;5029026;28;20184;-80
2023/01/30 00:40:01;;;;;;;0.30;0.30;;;5.00;99.90;;;;;;5030341;28;20233;-80
2023/01/30 00:47:57;;;;;;;0.30;0.30;;;5.00;99.90;;;;;;5029668;28;20801;-81
2023/01/30 00:50:23;;;;;;;0.30;0.30;;;5.00;99.90;;;;;;5025527;28;20449;-81
2023/01/30 00:52:48;;;;;;;0.20;0.20;;;5.00;99.90;;;;;;5025528;28;20438;-81
2023/01/30 00:55:14;;;;;;;0.30;0.30;;;5.00;99.90;;;;;;5028232;28;20815;-81
2023/01/30 00:57:40;;;;;;;0.30;0.30;;;5.00;99.90;;;;;;5022439;28;20202;-80
2023/01/30 01:00:07;;;;;;;0.30;0.30;;;5.00;99.90;;;;;;5020872;28;20453;-80
2023/01/30 01:02:33;;;;;;;0.30;0.30;;;5.00;99.90;;;;;;5031952;28;20211;-80
2023/01/30 01:04:59;;;;;;;0.30;0.30;;;5.00;99.90;;;;;;5024484;28;20485;-81
2023/01/30 01:07:24;;;;;;;0.33;0.33;;;5.00;99.90;;;;;;5030827;28;20191;-81
2023/01/30 01:09:50;;;;;;;0.30;0.30;;;5.00;99.90;;;;;;5024957;28;20233;-81
2023/01/30 01:12:15;;;;;;;0.30;0.30;;;5.10;99.90;;;;;;5022562;28;20259;-81
2023/01/30 01:14:41;;;;;;;0.30;0.30;;;5.00;99.90;;;;;;5030394;28;20227;-80
2023/01/30 01:17:06;;;;;;;0.30;0.30;;;5.10;99.90;;;;;;5023634;28;20714;-81
2023/01/30 01:19:32;;;;;;;0.23;0.23;;;5.10;99.90;;;;;;5029957;28;20184;-80
2023/01/30 01:21:58;;;;;;;0.20;0.20;;;5.00;99.90;;;;;;5025677;28;20546;-81
2023/01/30 01:24:23;;;;;;;0.30;0.30;;;5.00;99.90;;;;;;5011871;28;20544;-80
2023/01/30 01:26:49;;;;;;;0.20;0.20;;;5.10;99.90;;;;;;5024603;28;20266;-80
2023/01/30 01:29:15;;;;;;;0.30;0.30;;;5.00;99.90;;;;;;5027952;28;20271;-81
2023/01/30 01:31:42;;;;;;;0.27;0.27;;;5.10;99.90;;;;;;5026364;28;20635;-81
2023/01/30 01:34:08;;;;;;;0.30;0.30;;;5.10;99.90;;;;;;5028387;28;20452;-81
2023/01/30 01:36:33;;;;;;;0.27;0.27;;;5.10;99.90;;;;;;5029974;28;20805;-81
2023/01/30 01:38:59;;;;;;;0.20;0.20;;;5.10;99.90;;;;;;5027477;28;20893;-82
2023/01/30 01:41:25;;;;;;;0.20;0.20;;;5.10;99.90;;;;;;5027204;28;20187;-82
2023/01/30 01:44:11;;;;;;;0.20;0.20;;;5.10;99.90;;;;;;5025222;28;20193;-81
2023/01/30 01:46:53;;;;;;;0.30;0.30;;;5.10;99.90;;;;;;5024718;28;20784;-82
2023/01/30 01:49:30;;;;;;;0.30;0.30;;;5.20;99.90;;;;;;5027716;28;21075;-82
2023/01/30 01:52:08;;;;;;;0.30;0.30;;;5.10;99.90;;;;;;5023399;28;20454;-82
2023/01/30 01:54:37;;;;;;;0.30;0.30;;;5.10;99.90;;;;;;5014431;28;20437;-82
2023/01/30 01:57:11;;;;;;;0.30;0.30;;;5.20;99.90;;;;;;5020263;28;20526;-82
2023/01/30 01:59:44;;;;;;;0.20;0.20;;;5.20;99.90;;;;;;5016483;28;20528;-82
2023/01/30 02:02:13;;;;;;;0.30;0.30;;;5.20;99.90;;;;;;5028219;28;20442;-82
2023/01/30 02:05:01;;;;;;;0.30;0.30;;;5.30;99.90;;;;;;5027694;28;20470;-82
2023/01/30 02:07:48;;;;;;;0.20;0.20;;;5.20;99.90;;;;;;5028048;28;20442;-81
2023/01/30 02:10:21;;;;;;;0.30;0.30;;;5.20;99.90;;;;;;5022211;28;20446;-81
2023/01/30 02:12:47;;;;;;;0.30;0.30;;;5.20;99.90;;;;;;5028582;28;20540;-81
2023/01/30 02:15:13;;;;;;;0.30;0.30;;;5.30;99.90;;;;;;5019765;28;20478;-81
2023/01/30 02:17:39;;;;;;;0.30;0.30;;;5.30;99.90;;;;;;5028237;28;20442;-81
2023/01/30 02:20:31;;;;;;;0.30;0.30;;;5.40;99.90;;;;;;5028896;28;20456;-80
2023/01/30 02:23:15;;;;;;;0.30;0.30;;;5.40;99.90;;;;;;5011137;28;20724;-81
2023/01/30 02:26:01;;;;;;;0.20;0.20;;;5.40;99.90;;;;;;5025390;28;20493;-80
2023/01/30 02:28:47;;;;;;;0.20;0.20;;;5.40;99.90;;;;;;5015451;28;20470;-81
2023/01/30 02:31:30;;;;;;;0.20;0.20;;;5.40;99.90;;;;;;5025007;28;20445;-80
2023/01/30 02:34:28;;;;;;;0.20;0.20;;;5.50;99.90;;;;;;5023961;28;20441;-80
2023/01/30 02:37:01;;;;;;;0.30;0.30;;;5.40;99.90;;;;;;5010109;28;20450;-81
2023/01/30 02:40:00;;;;;;;0.27;0.27;;;5.40;99.90;;;;;;5020481;28;20965;-80
2023/01/30 02:42:41;;;;;;;0.30;0.30;;;5.40;99.90;;;;;;5023012;28;20495;-80
2023/01/30 02:45:28;;;;;;;0.20;0.20;;;5.40;99.90;;;;;;5027222;28;20867;-80
2023/01/30 02:48:06;;;;;;;0.30;0.30;;;5.40;99.90;;;;;;5023425;28;20435;-80
2023/01/30 02:50:43;;;;;;;0.30;0.30;;;5.30;99.90;;;;;;5018951;28;20445;-80
2023/01/30 02:53:09;;;;;;;0.20;0.20;;;5.20;99.90;;;;;;5028259;28;20481;-80
2023/01/30 02:55:35;;;;;;;0.20;0.20;;;5.20;99.90;;;;;;5027887;28;20808;-80
2023/01/30 02:58:03;;;;;;;0.27;0.27;;;5.10;99.90;;;;;;5020888;28;20270;-80
2023/01/30 03:00:39;;;;;;;0.30;0.30;;;5.10;99.90;;;;;;5026482;28;20192;-80
2023/01/30 03:03:14;;;;;;;0.20;0.20;;;4.90;99.90;;;;;;5028776;28;20445;-80
2023/01/30 03:06:11;;;;;;;0.30;0.30;;;4.80;99.90;;;;;;5027018;28;20821;-80
2023/01/30 03:08:59;;;;;;;0.30;0.30;;;4.80;99.90;;;;;;4991453;28;20980;-80
2023/01/30 03:11:33;;;;;;;0.30;0.30;;;4.70;99.90;;;;;;5025952;28;20434;-80
2023/01/30 03:14:09;;;;;;;0.30;0.30;;;4.70;99.90;;;;;;5024381;28;20473;-80
2023/01/30 03:16:39;;;;;;;0.30;0.30;;;4.50;99.90;;;;;;5025835;28;20777;-80
2023/01/30 03:19:10;;;;;;;0.20;0.20;;;4.60;99.90;;;;;;5027845;28;20958;-80
2023/01/30 03:21:44;;;;;;;0.30;0.30;;;4.50;99.90;;;;;;5030171;28;20789;-80
2023/01/30 03:24:10;;;;;;;0.30;0.30;;;4.50;99.90;;;;;;5026814;28;20489;-80
2023/01/30 03:26:51;;;;;;;0.30;0.30;;;4.50;99.90;;;;;;5024740;28;20454;-80
2023/01/30 03:29:16;;;;;;;0.20;0.20;;;4.50;99.90;;;;;;5022999;28;20454;-80
2023/01/30 03:31:42;;;;;;;0.30;0.30;;;4.50;99.90;;;;;;5026326;28;20457;-80
2023/01/30 03:34:08;;;;;;;0.27;0.27;;;4.50;99.90;;;;;;5026622;28;20199;-80
2023/01/30 03:36:33;;;;;;;0.30;0.30;;;4.50;99.90;;;;;;5024711;28;20553;-81
2023/01/30 03:38:59;;;;;;;0.30;0.30;;;4.50;99.90;;;;;;5026222;28;20177;-80
2023/01/30 03:41:24;;;;;;;0.30;0.30;;;4.50;99.90;;;;;;5028663;28;20184;-80
2023/01/30 03:43:50;;;;;;;0.30;0.30;;;4.50;99.90;;;;;;5032144;28;20697;-81
2023/01/30 03:46:15;;;;;;;0.20;0.20;;;4.50;99.90;;;;;;5026178;28;20310;-80
2023/01/30 03:48:41;;;;;;;0.30;0.30;;;4.50;99.90;;;;;;5032214;28;20554;-80
2023/01/30 03:51:06;;;;;;;0.30;0.30;;;4.40;99.90;;;;;;5029091;28;20191;-80
2023/01/30 03:53:32;;;;;;;0.20;0.20;;;4.40;99.90;;;;;;5029654;28;20258;-80
2023/01/30 03:55:57;;;;;;;0.30;0.30;;;4.40;99.90;;;;;;5030076;28;20191;-80
2023/01/30 03:58:22;;;;;;;0.30;0.30;;;4.40;99.90;;;;;;5029182;28;20199;-80
2023/01/30 04:00:48;;;;;;;0.23;0.23;;;4.40;99.90;;;;;;5030694;28;20561;-80
2023/01/30 04:03:14;;;;;;;0.27;0.27;;;4.40;99.90;;;;;;5027437;28;20194;-79
2023/01/30 04:05:41;;;;;;;0.30;0.30;;;4.40;99.90;;;;;;5045753;28;20309;-80
2023/01/30 04:08:08;;;;;;;0.33;0.33;;;4.40;99.90;;;;;;5031380;28;20457;-80
2023/01/30 04:10:34;;;;;;;0.30;0.30;;;4.40;99.90;;;;;;5029183;28;20457;-80
2023/01/30 04:12:59;;;;;;;0.30;0.30;;;4.30;99.90;;;;;;5028088;28;20457;-79
2023/01/30 04:15:25;;;;;;;0.30;0.30;;;4.30;99.90;;;;;;5028329;28;20206;-79
2023/01/30 04:17:50;;;;;;;0.20;0.20;;;4.30;99.90;;;;;;5032495;28;20210;-80
2023/01/30 04:20:16;;;;;;;0.30;0.30;;;4.30;99.90;;;;;;5029288;28;20195;-80
2023/01/30 04:22:42;;;;;;;0.20;0.20;;;4.30;99.90;;;;;;5012789;28;20239;-80
2023/01/30 04:25:07;;;;;;;0.23;0.23;;;4.20;99.90;;;;;;5030932;28;20683;-80
2023/01/30 04:27:33;;;;;;;0.30;0.30;;;4.20;99.90;;;;;;5029297;28;20195;-80
2023/01/30 04:29:58;;;;;;;0.30;0.30;;;4.20;99.90;;;;;;5030099;28;21172;-80
2023/01/30 04:32:25;;;;;;;0.30;0.30;;;4.10;99.90;;;;;;5017412;28;20204;-80
2023/01/30 04:34:51;;;;;;;0.30;0.30;;;4.10;99.90;;;;;;5031989;28;20195;-79
2023/01/30 04:37:16;;;;;;;0.30;0.30;;;4.10;99.90;;;;;;5030846;28;20446;-79
2023/01/30 04:39:42;;;;;;;0.30;0.30;;;4.10;99.90;;;;;;5026484;28;20211;-80
2023/01/30 04:42:07;;;;;;;0.30;0.30;;;4.10;99.90;;;;;;5022116;28;20206;-80
2023/01/30 04:44:33;;;;;;;0.30;0.30;;;4.10;99.90;;;;;;5028241;28;20675;-79
2023/01/30 04:46:58;;;;;;;0.30;0.30;;;4.00;99.90;;;;;;5029748;28;20192;-82
2023/01/30 04:49:24;;;;;;;0.27;0.27;;;4.00;99.90;;;;;;5030423;28;20184;-82
2023/01/30 04:51:49;;;;;;;0.30;0.30;;;4.00;99.90;;;;;;5027952;28;20197;-82
2023/01/30 04:54:15;;;;;;;0.30;0.30;;;4.00;99.90;;;;;;5031526;28;20270;-82
2023/01/30 04:56:40;;;;;;;0.30;0.30;;;4.00;99.90;;;;;;5024983;28;20200;-82
2023/01/30 04:59:06;;;;;;;0.30;0.30;;;4.00;99.90;;;;;;5018587;28;20188;-82
2023/01/30 05:01:37;;;;;;;0.30;0.30;;;3.90;99.90;;;;;;5024152;28;20192;-82
2023/01/30 05:04:03;;;;;;;0.30;0.30;;;4.00;99.90;;;;;;5030424;28;20659;-82
2023/01/30 05:06:30;;;;;;;0.20;0.20;;;4.00;99.90;;;;;;5028311;28;20456;-82
2023/01/30 05:08:56;;;;;;;0.30;0.30;;;3.90;99.90;;;;;;5029666;28;21166;-82
2023/01/30 05:11:23;;;;;;;0.30;0.30;;;3.90;99.90;;;;;;5027734;28;20462;-82
2023/01/30 05:13:49;;;;;;;0.40;0.40;;;3.90;99.90;;;;;;5029919;28;20232;-81
2023/01/30 05:16:16;;;;;;;0.30;0.30;;;4.00;99.90;;;;;;5028261;28;20446;-82
2023/01/30 05:18:42;;;;;;;0.30;0.30;;;3.90;99.90;;;;;;5030082;28;20426;-82
2023/01/30 05:21:11;;;;;;;0.30;0.30;;;3.90;99.90;;;;;;5025243;28;20446;-82
2023/01/30 05:23:36;;;;;;;0.30;0.30;;;3.90;99.90;;;;;;5025148;28;20479;-82
2023/01/30 05:26:02;;;;;;;0.30;0.30;;;3.90;99.90;;;;;;5019690;28;20528;-82
2023/01/30 05:28:28;;;;;;;0.30;0.30;;;4.00;99.90;;;;;;5029773;28;21787;-82
2023/01/30 05:30:59;;;;;;;0.30;0.30;;;4.00;99.90;;;;;;5027513;28;20454;-82
2023/01/30 05:33:25;;;;;;;0.30;0.30;;;3.90;99.90;;;;;;5029770;28;20183;-82
2023/01/30 05:35:50;;;;;;;0.30;0.30;;;3.90;99.90;;;;;;5028285;28;20543;-82
2023/01/30 05:38:16;;;;;;;0.40;0.40;;;3.90;99.90;;;;;;5029823;28;20225;-82
2023/01/30 05:40:41;;;;;;;0.30;0.30;;;3.90;99.90;;;;;;5025507;28;20286;-82
2023/01/30 05:43:08;;;;;;;0.20;0.20;;;4.00;99.90;;;;;;5041118;28;20192;-82
2023/01/30 05:45:35;;;;;;;0.30;0.30;;;4.00;99.90;;;;;;5023649;28;20687;-82
2023/01/30 05:48:00;;;;;;;0.30;0.30;;;4.00;99.90;;;;;;5021895;28;20453;-82
2023/01/30 05:50:26;;;;;;;0.30;0.30;;;4.00;99.90;;;;;;5026540;28;20531;-82
2023/01/30 05:52:51;;;;;;;0.30;0.30;;;4.10;99.90;;;;;;5027995;28;20206;-82
2023/01/30 05:55:17;;;;;;;0.30;0.30;;;4.20;99.90;;;;;;5025144;28;20211;-82
2023/01/30 05:57:42;;;;;;;0.40;0.40;;;4.20;99.90;;;;;;5024981;28;20570;-82
2023/01/30 06:00:09;;;;;;;0.30;0.30;;;4.20;99.90;;;;;;5019571;28;20223;-82
2023/01/30 06:02:35;;;;;;;0.27;0.27;;;4.20;99.90;;;;;;5023038;28;20179;-82
2023/01/30 06:05:00;;;;;;;0.30;0.30;;;4.10;99.90;;;;;;5027947;28;20528;-82
2023/01/30 06:07:26;;;;;;;0.30;0.30;;;4.10;99.90;;;;;;5027626;28;20260;-82
2023/01/30 06:09:51;;;;;;;0.30;0.30;;;4.10;99.90;;;;;;5026699;28;20694;-82
2023/01/30 06:12:17;;;;;;;0.30;0.30;;;4.10;99.90;;;;;;5027589;28;20198;-81
2023/01/30 06:14:42;;;;;;;0.20;0.20;;;4.00;99.90;;;;;;5020812;28;20236;-81
2023/01/30 06:17:08;;;;;;;0.30;0.30;;;4.00;99.90;;;;;;5027031;28;20191;-82
2023/01/30 06:19:33;;;;;;;0.30;0.30;;;4.00;99.90;;;;;;5028624;28;20237;-81
2023/01/30 06:21:59;;;;;;;0.30;0.30;;;4.00;99.90;;;;;;5026130;28;20188;-82
2023/01/30 06:24:25;;;;;;;0.30;0.30;;;4.00;99.90;;;;;;5027110;28;20668;-82
2023/01/30 06:26:50;;;;;;;0.30;0.30;;;4.00;99.90;;;;;;5024586;28;20277;-81
2023/01/30 06:29:16;;;;;;;0.30;0.30;;;4.10;99.90;;;;;;5021123;28;21556;-81
2023/01/30 06:31:41;;;;;;;0.30;0.30;;;4.10;99.90;;;;;;5027164;28;20345;-81
2023/01/30 06:34:07;;;;;;;0.30;0.30;;;4.10;99.90;;;;;;5024807;28;20190;-82
2023/01/30 06:36:32;;;;;;;0.30;0.30;;;4.10;99.90;;;;;;5028823;28;20674;-82
2023/01/30 06:38:58;;;;;;;0.30;0.30;;;4.20;99.90;;;;;;5028350;28;20190;-81
2023/01/30 06:41:23;;;;;;;0.30;0.30;;;4.20;99.90;;;;;;5024454;28;20199;-80
2023/01/30 06:43:49;;;;;;;0.20;0.20;;;4.20;99.90;;;;;;5026922;28;20203;-80
2023/01/30 06:46:14;;;;;;;0.30;0.30;;;4.10;99.90;;;;;;5025489;28;20219;-79
2023/01/30 06:48:40;;;;;;;0.27;0.27;;;4.10;99.90;;;;;;5019983;28;20184;-80
2023/01/30 06:51:05;;;;;;;0.30;0.30;;;4.20;99.90;;;;;;5023591;28;20215;-82
2023/01/30 06:53:31;;;;;;;0.30;0.30;;;4.30;99.90;;;;;;5027447;28;20184;-82
2023/01/30 06:55:57;;;;;;;0.30;0.30;;;4.30;99.90;;;;;;5029645;28;20560;-82
2023/01/30 06:58:23;;;;;;;0.40;0.40;;;4.40;99.90;;;;;;5025534;28;20191;-81
2023/01/30 07:00:48;;;;;;;0.23;0.23;;;4.40;99.90;;;;;;5025210;28;20446;-82
2023/01/30 07:03:16;;;;;;;0.30;0.30;;;4.50;99.90;;;;;;5024146;28;20194;-81
2023/01/30 07:05:44;;;;;;;0.30;0.30;;;4.40;99.90;;;;;;5024495;28;20227;-81
2023/01/30 07:08:10;;;;;;;0.30;0.30;;;4.40;99.90;;;;;;5009481;28;20510;-79
2023/01/30 07:10:36;;;;;;;0.30;0.30;;;4.40;99.90;;;;;;5023910;28;20442;-80
2023/01/30 07:13:02;;;;;;;0.30;0.30;;;4.40;99.90;;;;;;5025989;28;20851;-81
2023/01/30 07:15:28;;;;;;;0.30;0.30;;;4.40;99.90;;;;;;5021027;28;20195;-82
2023/01/30 07:17:54;;;;;;;0.30;0.30;;;4.40;99.90;;;;;;5020128;28;20445;-81
2023/01/30 07:20:21;;;;;;;0.30;0.30;;;4.40;99.90;;;;;;5023937;28;20647;-82
2023/01/30 07:22:50;;;;;;;0.23;0.23;;;4.40;99.90;;;;;;5024020;28;20595;-81
2023/01/30 07:25:17;;;;;;;0.30;0.30;;;4.50;99.90;;;;;;5022150;28;21091;-79
2023/01/30 07:27:42;;;;;;;0.23;0.23;;;4.50;99.90;;;;;;5025930;28;20831;-79
2023/01/30 07:30:09;;;;;;;0.20;0.20;;;4.50;99.90;;;;;;5028642;28;20476;-79
2023/01/30 07:32:34;;;;;;;0.30;0.30;;;4.60;99.90;;;;;;5028908;28;20180;-79
2023/01/30 07:34:59;;;;;;;0.30;0.30;;;4.60;99.90;;;;;;5027257;28;20441;-80
2023/01/30 07:37:25;;;;;;;0.30;0.30;;;4.60;99.90;;;;;;5021541;28;20187;-80
2023/01/30 07:39:50;;;;;;;0.30;0.30;;;4.70;99.90;;;;;;5019226;28;20215;-80
2023/01/30 07:42:16;;;;;;;0.30;0.30;;;4.70;99.90;;;;;;5021110;28;20187;-81
2023/01/30 07:44:42;;;;;;;0.30;0.30;;;4.70;99.90;;;;;;5030723;28;20714;-79
2023/01/30 07:47:07;;;;;;;0.20;0.20;;;4.70;99.90;;;;;;5031670;28;20663;-80
2023/01/30 07:49:33;;;;;;;0.30;0.30;;;4.70;99.90;;;;;;5026777;28;20195;-80
2023/01/30 07:51:58;;;;;;;0.20;0.20;;;4.70;99.90;;;;;;5030439;28;20188;-80
2023/01/30 07:54:25;;;;;;;0.20;0.20;;;4.80;99.90;;;;;;5027512;28;20207;-79
2023/01/30 07:56:51;;;;;;;0.30;0.30;;;4.90;99.90;;;;;;5025415;28;20188;-80
2023/01/30 07:59:16;;;;;;;0.30;0.30;;;5.00;99.90;;;;;;5027196;28;20479;-79
2023/01/30 08:01:42;;;;;;;0.30;0.30;;;5.00;99.90;;;;;;5024028;28;20190;-80
2023/01/30 08:04:07;;;;;;;0.37;0.37;;;5.00;99.90;;;;;;5020965;28;20191;-80
2023/01/30 08:06:37;;;;;;;0.30;0.30;;;5.00;99.90;;;;;;5024745;28;20756;-80
2023/01/30 08:09:03;;;;;;;0.20;0.20;;;5.00;99.90;;;;;;5025093;28;20218;-80
2023/01/30 08:11:28;;;;;;;0.30;0.30;;;4.90;99.90;;;;;;5030100;28;20557;-80
2023/01/30 08:13:54;;;;;;;0.30;0.30;;;4.90;99.90;;;;;;5025778;28;20240;-80
2023/01/30 08:16:19;;;;;;;0.30;0.30;;;4.90;99.90;;;;;;5028832;28;20194;-80
2023/01/30 08:18:45;;;;;;;0.20;0.20;;;4.80;99.90;;;;;;5034477;28;20270;-80
2023/01/30 08:21:10;;;;;;;0.30;0.30;;;4.80;99.90;;;;;;5029339;28;20183;-80
2023/01/30 08:23:36;;;;;;;0.30;0.30;;;4.70;99.90;;;;;;5026552;28;20266;-80
2023/01/30 08:26:04;;;;;;;0.30;0.30;;;4.70;99.90;;;;;;5013974;28;20305;-80
2023/01/30 08:28:29;;;;;;;0.30;0.30;;;4.60;99.90;;;;;;5012465;28;20184;-80
2023/01/30 08:30:56;;;;;;;0.20;0.20;;;4.00;99.90;;;;;;5021509;28;20449;-82
2023/01/30 08:33:22;;;;;;;0.30;0.30;;;3.80;99.90;;;;;;5025237;28;20190;-82
2023/01/30 08:35:48;;;;;;;0.30;0.30;;;3.70;99.90;;;;;;5030063;28;21025;-82
2023/01/30 08:38:14;;;;;;;0.30;0.30;;;3.50;99.90;;;;;;5024317;28;20533;-82
2023/01/30 08:40:40;;;;;;;0.30;0.30;;;3.60;99.90;;;;;;5026833;28;20555;-82
2023/01/30 08:43:06;;;;;;;0.30;0.30;;;3.60;99.90;;;;;;5028794;28;20961;-82
2023/01/30 08:45:32;;;;;;;0.30;0.30;;;3.50;99.90;;;;;;5024078;28;20482;-82
2023/01/30 08:48:04;;;;;;;0.30;0.30;;;3.40;99.90;;;;;;5027578;28;20287;-83
2023/01/30 08:50:31;;;;;;;0.30;0.30;;;2.90;99.90;;;;;;5021610;28;20736;-82
2023/01/30 08:52:57;;;;;;;0.30;0.30;;;2.60;99.90;;;;;;5019984;28;21466;-82
2023/01/30 08:55:22;;;;;;;0.30;0.30;;;2.60;99.90;;;;;;5023037;28;20516;-82
2023/01/30 08:57:48;;;;;;;0.30;0.30;;;2.70;99.90;;;;;;5026725;28;20558;-82
2023/01/30 09:00:15;;;;;;;0.30;0.30;;;2.80;99.90;;;;;;5024520;28;20187;-82
2023/01/30 09:02:40;;;;;;;0.30;0.30;;;2.80;99.90;;;;;;5029104;28;20330;-81
2023/01/30 09:05:06;;;;;;;0.40;0.40;;;2.90;99.90;;;;;;5020754;28;21053;-82
2023/01/30 09:07:32;;;;;;;0.27;0.27;;;2.90;99.90;;;;;;5022058;28;20179;-82
2023/01/30 09:09:58;;;;;;;0.40;0.40;;;3.00;99.90;;;;;;5026816;28;20446;-81
2023/01/30 09:12:24;;;;;;;0.30;0.30;;;3.10;99.90;;;;;;5021441;28;20442;-82
2023/01/30 09:14:51;;;;;;;0.30;0.30;;;3.30;99.90;;;;;;5020969;28;20230;-82
2023/01/30 09:17:17;;;;;;;0.30;0.30;;;3.50;99.90;;;;;;5019776;28;20833;-82
2023/01/30 09:19:43;;;;;;;0.30;0.30;;;3.60;99.90;;;;;;5021645;28;20450;-79
2023/01/30 09:22:08;;;;;;;0.30;0.30;;;3.80;99.90;;;;;;5017788;28;20196;-80
2023/01/30 09:24:34;;;;;;;0.27;0.27;;;4.00;99.90;;;;;;5019956;28;20215;-80
2023/01/30 09:26:59;;;;;;;0.30;0.30;;;4.00;99.90;;;;;;5019628;28;20539;-80
2023/01/30 09:29:26;;;;;;;0.30;0.30;;;4.10;99.90;;;;;;5008026;28;20962;-80
2023/01/30 09:31:52;;;;;;;0.20;0.20;;;4.10;99.90;;;;;;5031537;28;20199;-81
2023/01/30 09:34:17;;;;;;;0.30;0.30;;;4.30;99.90;;;;;;5023821;28;20977;-81
2023/01/30 09:36:43;;;;;;;0.30;0.30;;;4.30;99.90;;;;;;5025814;28;20445;-81
2023/01/30 09:39:09;;;;;;;0.20;0.20;;;4.40;99.90;;;;;;5021706;28;20676;-80
2023/01/30 09:41:57;;;;;;;0.27;0.27;;;4.40;99.90;;;;;;5019051;28;20763;-81
2023/01/30 09:44:41;;;;;;;0.30;0.30;;;4.50;99.90;;;;;;5026077;28;20184;-82
2023/01/30 09:47:30;;;;;;;0.33;0.33;;;4.60;99.90;;;;;;5027062;28;20450;-81
2023/01/30 09:50:15;;;;;;;0.30;0.30;;;4.70;99.90;;;;;;5025119;28;20442;-80
2023/01/30 09:52:56;;;;;;;0.20;0.20;;;4.70;99.90;;;;;;5015470;28;20445;-81
2023/01/30 09:55:25;;;;;;;0.30;0.30;;;4.90;99.90;;;;;;5024938;28;20446;-82
2023/01/30 09:57:52;;;;;;;0.23;0.23;;;5.00;99.90;;;;;;5022499;28;20576;-81
2023/01/30 10:00:41;;;;;;;0.30;0.30;;;5.00;99.90;;;;;;5024775;28;20449;-81
2023/01/30 10:03:19;;;;;;;0.27;0.27;;;4.90;99.90;;;;;;5025983;28;20439;-82
2023/01/30 10:05:54;;;;;;;0.30;0.30;;;4.90;99.90;;;;;;5025090;28;20492;-80
2023/01/30 10:08:44;;;;;;;0.20;0.20;;;4.80;99.90;;;;;;5024417;28;20449;-81
2023/01/30 10:11:32;;;;;;;0.30;0.30;;;4.80;99.90;;;;;;5028064;28;20430;-79
2023/01/30 10:14:19;;;;;;;0.20;0.20;;;4.50;99.90;;;;;;5020632;28;20497;-79
2023/01/30 10:17:20;;;;;;;0.30;0.30;;;4.40;99.90;;;;;;5024309;28;20945;-80
2023/01/30 10:20:10;;;;;;;0.30;0.30;;;4.40;99.90;;;;;;5020260;28;20447;-79
2023/01/30 10:22:57;;;;;;;0.30;0.30;;;4.40;99.90;;;;;;5019274;28;20450;-80
2023/01/30 10:25:40;;;;;;;0.20;0.20;;;4.40;99.90;;;;;;5026477;28;20965;-79
2023/01/30 10:28:25;;;;;;;0.30;0.30;;;4.30;99.90;;;;;;5027166;28;20449;-80
2023/01/30 10:30:59;;;;;;;0.30;0.30;;;4.30;99.90;;;;;;5026337;28;20566;-80
2023/01/30 10:33:34;;;;;;;0.20;0.20;;;4.30;99.90;;;;;;5026762;28;20444;-80
2023/01/30 10:36:08;;;;;;;0.30;0.30;;;4.30;99.90;;;;;;5021492;28;20442;-80
2023/01/30 10:38:45;;;;;;;0.30;0.30;;;4.30;99.90;;;;;;5023651;28;20877;-79
2023/01/30 10:41:14;;;;;;;0.30;0.30;;;4.20;99.90;;;;;;5024288;28;20446;-80
2023/01/30 10:43:44;;;;;;;0.30;0.30;;;4.30;99.90;;;;;;5017443;28;20434;-80
2023/01/30 10:46:16;;;;;;;0.30;0.30;;;4.40;99.90;;;;;;5025189;28;20496;-80
2023/01/30 10:48:50;;;;;;;0.30;0.30;;;4.40;99.90;;;;;;5022929;28;20501;-80
2023/01/30 10:51:28;;;;;;;0.30;0.30;;;4.50;99.90;;;;;;5020234;28;20486;-80
2023/01/30 10:54:31;;;;;;;0.30;0.30;;;4.60;99.90;;;;;;5027434;28;20435;-80
2023/01/30 10:57:26;;;;;;;0.20;0.20;;;4.60;99.90;;;;;;5025847;28;20446;-80
2023/01/30 11:00:01;;;;;;;0.30;0.30;;;4.60;99.90;;;;;;5011813;28;20853;-81
2023/01/30 11:02:29;;;;;;;0.30;0.30;;;4.60;99.90;;;;;;5024097;28;21320;-80
2023/01/30 11:05:17;;;;;;;0.30;0.30;;;4.50;99.90;;;;;;5025022;28;20472;-80
2023/01/30 11:07:44;;;;;;;0.30;0.30;;;4.50;99.90;;;;;;5025281;28;20454;-80
2023/01/30 11:10:22;;;;;;;0.30;0.30;;;4.60;99.90;;;;;;5039509;28;21542;-80
2023/01/30 11:12:56;;;;;;;0.20;0.20;;;4.50;99.90;;;;;;5021455;28;20450;-80
2023/01/30 11:15:24;;;;;;;0.20;0.20;;;4.50;99.90;;;;;;5023662;28;21447;-80
2023/01/30 11:17:50;;;;;;;0.30;0.30;;;4.90;99.90;;;;;;5024293;28;20446;-81
2023/01/30 11:20:22;;;;;;;0.30;0.30;;;5.40;99.90;;;;;;5025041;28;20500;-80
2023/01/30 11:23:03;;;;;;;0.30;0.30;;;5.00;99.90;;;;;;5024547;28;20453;-79
2023/01/30 11:25:28;;;;;;;0.20;0.20;;;5.30;99.90;;;;;;5014649;28;20482;-81
2023/01/30 11:28:03;;;;;;;0.30;0.30;;;5.90;99.90;;;;;;5025351;28;20464;-79
2023/01/30 11:30:37;;;;;;;0.30;0.30;;;5.80;99.90;;;;;;5024240;28;20278;-80
2023/01/30 11:33:29;;;;;;;0.20;0.20;;;6.40;99.90;;;;;;5025651;28;20426;-81
2023/01/30 11:36:04;;;;;;;0.30;0.30;;;6.50;99.90;;;;;;5028051;28;20541;-81
2023/01/30 11:38:32;;;;;;;0.30;0.30;;;6.80;99.90;;;;;;5012198;28;20481;-79
2023/01/30 11:41:10;;;;;;;0.20;0.20;;;7.40;99.90;;;;;;5020709;28;21031;-79
2023/01/30 11:43:41;;;;;;;0.20;0.20;;;7.90;99.90;;;;;;5023819;28;20524;-82
2023/01/30 11:46:10;;;;;;;0.20;0.20;;;8.90;99.90;;;;;;5025185;28;20477;-80
2023/01/30 11:48:52;;;;;;;0.20;0.20;;;7.90;99.90;;;;;;5024803;28;20925;-79
2023/01/30 11:51:20;;;;;;;0.23;0.23;;;6.80;99.90;;;;;;5026382;28;20980;-79
2023/01/30 11:53:55;;;;;;;0.20;0.20;;;6.10;99.90;;;;;;5026252;28;20450;-79
2023/01/30 11:56:34;;;;;;;0.30;0.30;;;5.70;99.90;;;;;;5015500;28;20445;-80
2023/01/30 11:59:03;;;;;;;0.30;0.30;;;5.40;99.90;;;;;;5021722;28;20449;-79
2023/01/30 12:01:32;;;;;;;0.30;0.30;;;5.30;99.90;;;;;;5027222;28;20548;-80
2023/01/30 12:03:59;;;;;;;0.20;0.20;;;5.20;99.90;;;;;;5028617;28;20818;-80
2023/01/30 12:06:33;;;;;;;0.30;0.30;;;5.20;99.90;;;;;;5022061;28;20989;-80
2023/01/30 12:08:59;;;;;;;0.20;0.20;;;5.80;99.90;;;;;;5027347;28;20842;-80
2023/01/30 12:11:35;;;;;;;0.20;0.20;;;6.10;99.90;;;;;;5042884;28;20468;-80
2023/01/30 12:14:08;;;;;;;0.20;0.20;;;6.70;99.90;;;;;;5021192;28;20473;-79
2023/01/30 12:16:51;;;;;;;0.20;0.20;;;7.70;99.90;;;;;;5020949;28;20446;-80
2023/01/30 12:19:34;;;;;;;0.20;0.20;;;8.40;99.90;;;;;;5021846;28;20476;-80
2023/01/30 12:22:15;;;;;;;0.20;0.20;;;7.60;99.90;;;;;;5031065;28;20444;-80
2023/01/30 12:24:57;;;;;;;0.20;0.20;;;7.20;99.90;;;;;;5029234;28;20511;-80
2023/01/30 12:27:50;;;;;;;0.20;0.20;;;6.60;99.90;;;;;;5027146;28;20939;-80
2023/01/30 12:30:41;;;;;;;0.30;0.30;;;6.10;99.90;;;;;;5019678;28;20518;-80
2023/01/30 12:33:11;;;;;;;0.30;0.30;;;6.10;99.90;;;;;;5022070;28;20445;-79
2023/01/30 12:35:54;;;;;;;0.20;0.20;;;5.80;99.90;;;;;;5028467;28;20926;-80
2023/01/30 12:38:26;;;;;;;0.30;0.30;;;5.90;99.90;;;;;;5027361;28;20457;-79
2023/01/30 12:41:23;;;;;;;0.20;0.20;;;6.20;99.90;;;;;;5031820;28;20532;-80
2023/01/30 12:43:58;;;;;;;0.30;0.30;;;6.20;99.90;;;;;;5028912;28;20446;-80
2023/01/30 12:46:44;;;;;;;0.20;0.20;;;6.10;99.90;;;;;;5019069;28;20486;-79
2023/01/30 12:49:27;;;;;;;0.30;0.30;;;6.30;99.90;;;;;;5013663;28;20412;-79
2023/01/30 12:52:39;;;;;;;0.30;0.30;;;6.60;99.90;;;;;;5028147;28;20811;-80
2023/01/30 12:55:29;;;;;;;0.20;0.20;;;6.30;99.90;;;;;;5009027;28;20437;-80
2023/01/30 12:58:16;;;;;;;0.20;0.20;;;6.20;99.90;;;;;;5031000;28;20444;-80
2023/01/30 13:00:49;;;;;;;0.30;0.30;;;6.20;99.90;;;;;;5017065;28;20454;-80
2023/01/30 13:03:42;;;;;;;0.30;0.30;;;6.10;99.90;;;;;;5029002;28;20446;-80
2023/01/30 13:06:46;;;;;;;0.30;0.30;;;6.00;99.90;;;;;;5029662;28;20543;-80
2023/01/30 13:09:22;;;;;;;0.30;0.30;;;6.00;99.90;;;;;;5034734;28;21032;-79
2023/01/30 13:12:02;;;;;;;0.30;0.30;;;6.10;99.90;;;;;;5032823;28;20430;-80
2023/01/30 13:14:45;;;;;;;0.30;0.30;;;6.40;99.90;;;;;;5025940;28;20484;-80
2023/01/30 13:17:40;;;;;;;0.30;0.30;;;6.80;99.90;;;;;;5028332;28;20982;-80
2023/01/30 13:20:12;;;;;;;0.27;0.27;;;6.30;99.90;;;;;;5027634;28;20446;-80
2023/01/30 13:22:52;;;;;;;0.30;0.30;;;8.20;99.90;;;;;;5027478;28;20524;-80